Time;durP1;ratioP1;P1;durP2;ratioP2;P2;SDS_P1;SDS_P2;PMS_P1;PMS_P2;Temp;Humidity;BMP_temperature;BMP_pressure;BME280_temperature;BME280_humidity;BME280_pressure;Samples;Min_cycle;Max_cycle;Signal;HPM_P1;HPM_P2
2022/12/20 00:01:36;;;;;;;4.03;3.63;;;5.70;99.90;;;;;;5012024;28;20451;-76
2022/12/20 00:04:05;;;;;;;5.37;4.00;;;5.80;67.40;;;;;;5008584;28;20468;-75
2022/12/20 00:06:35;;;;;;;4.20;3.85;;;5.90;1.00;;;;;;5010552;28;20977;-77
2022/12/20 00:09:06;;;;;;;5.50;3.90;;;5.90;1.00;;;;;;5006370;28;20348;-78
2022/12/20 00:11:35;;;;;;;4.47;4.03;;;6.00;1.00;;;;;;5013355;28;20565;-76
2022/12/20 00:14:04;;;;;;;4.47;3.80;;;6.00;99.90;;;;;;5011973;28;20541;-76
2022/12/20 00:16:33;;;;;;;4.17;3.70;;;6.00;99.90;;;;;;5009691;28;20469;-77
2022/12/20 00:19:04;;;;;;;4.60;4.20;;;6.00;99.90;;;;;;5009327;28;20494;-74
2022/12/20 00:21:34;;;;;;;5.68;4.18;;;6.00;96.20;;;;;;5003450;28;20475;-75
2022/12/20 00:24:03;;;;;;;4.70;4.30;;;6.00;99.90;;;;;;5004025;28;20221;-75
2022/12/20 00:26:34;;;;;;;8.40;5.63;;;6.10;99.90;;;;;;5010398;28;21138;-75
2022/12/20 00:29:02;;;;;;;4.73;3.77;;;6.10;99.90;;;;;;5010205;28;20481;-76
2022/12/20 00:31:33;;;;;;;4.40;3.73;;;6.10;99.90;;;;;;5009561;28;20456;-76
2022/12/20 00:34:01;;;;;;;5.07;3.70;;;6.10;1.00;;;;;;5011283;28;20444;-75
2022/12/20 00:36:31;;;;;;;5.20;4.70;;;6.10;1.00;;;;;;5002199;28;20556;-78
2022/12/20 00:39:01;;;;;;;5.27;4.23;;;6.10;99.90;;;;;;5006907;28;20453;-76
2022/12/20 00:41:31;;;;;;;6.57;4.40;;;6.10;99.90;;;;;;5013491;28;20449;-76
2022/12/20 00:44:00;;;;;;;6.13;3.87;;;6.10;99.90;;;;;;5011913;28;20457;-76
2022/12/20 00:46:30;;;;;;;4.50;3.87;;;6.10;99.90;;;;;;5010648;28;20500;-76
2022/12/20 00:49:00;;;;;;;5.30;3.90;;;6.20;99.90;;;;;;5014702;28;20472;-76
2022/12/20 00:51:30;;;;;;;5.03;4.43;;;6.20;99.90;;;;;;5009718;28;20461;-76
2022/12/20 00:53:59;;;;;;;6.90;3.93;;;6.20;1.00;;;;;;5013560;28;20471;-76
2022/12/20 00:56:27;;;;;;;4.60;4.20;;;6.20;1.00;;;;;;5007796;28;20483;-77
2022/12/20 00:58:57;;;;;;;5.03;4.07;;;6.20;90.90;;;;;;5010549;28;21021;-77
2022/12/20 01:01:27;;;;;;;5.40;4.27;;;6.20;10.90;;;;;;5004738;28;20461;-77
2022/12/20 01:03:56;;;;;;;8.43;4.00;;;6.20;97.10;;;;;;5000024;28;20461;-76
2022/12/20 01:06:26;;;;;;;4.37;3.93;;;6.20;99.90;;;;;;5009171;28;21252;-76
2022/12/20 01:08:55;;;;;;;4.63;4.20;;;6.10;99.90;;;;;;5009927;28;20491;-76
2022/12/20 01:11:25;;;;;;;4.30;3.90;;;6.20;99.90;;;;;;5008988;28;20544;-77
2022/12/20 01:13:55;;;;;;;4.00;3.63;;;6.10;99.90;;;;;;5009746;28;20457;-76
2022/12/20 01:16:25;;;;;;;6.70;5.83;;;6.20;99.90;;;;;;5008499;28;20484;-77
2022/12/20 01:18:54;;;;;;;5.10;3.93;;;6.10;99.90;;;;;;5013794;28;20549;-76
2022/12/20 01:21:25;;;;;;;5.40;4.10;;;6.10;99.90;;;;;;5009889;28;20480;-76
2022/12/20 01:23:54;;;;;;;5.10;4.57;;;6.10;99.90;;;;;;5011056;28;20466;-76
2022/12/20 01:26:25;;;;;;;5.70;4.60;;;6.10;99.90;;;;;;5012668;28;20484;-76
2022/12/20 01:28:56;;;;;;;4.80;4.20;;;6.10;99.90;;;;;;5011647;28;20474;-76
2022/12/20 01:31:25;;;;;;;6.80;3.97;;;6.10;99.90;;;;;;5010874;28;20456;-76
2022/12/20 01:33:53;;;;;;;4.13;3.70;;;6.10;1.00;;;;;;5012098;28;20547;-76
2022/12/20 01:36:24;;;;;;;5.67;4.13;;;6.10;99.90;;;;;;5007263;28;20485;-77
2022/12/20 01:38:58;;;;;;;4.70;3.83;;;6.10;99.90;;;;;;5010412;28;20809;-76
2022/12/20 01:41:27;;;;;;;4.63;3.57;;;6.10;99.90;;;;;;5008577;28;20457;-76
2022/12/20 01:43:57;;;;;;;5.87;4.03;;;6.20;99.90;;;;;;5009729;28;21318;-78
2022/12/20 01:46:27;;;;;;;4.67;4.27;;;6.20;99.90;;;;;;4999647;28;20478;-78
2022/12/20 01:49:01;;;;;;;5.80;4.20;;;6.20;99.90;;;;;;5010702;28;20488;-77
2022/12/20 01:51:32;;;;;;;4.73;4.33;;;6.10;1.00;;;;;;5009827;28;20465;-76
2022/12/20 01:54:06;;;;;;;5.03;4.33;;;6.10;99.90;;;;;;5008546;28;20456;-75
2022/12/20 01:56:36;;;;;;;5.57;3.97;;;6.10;99.90;;;;;;5005085;28;21256;-76
2022/12/20 01:59:04;;;;;;;5.63;5.10;;;6.10;1.00;;;;;;5011987;28;20540;-74
2022/12/20 02:01:33;;;;;;;6.67;4.50;;;6.10;99.90;;;;;;5013205;28;20501;-75
2022/12/20 02:04:02;;;;;;;6.03;4.40;;;6.00;1.00;;;;;;5005147;28;21353;-76
2022/12/20 02:06:30;;;;;;;5.47;4.70;;;6.10;1.00;;;;;;5014223;28;20476;-76
2022/12/20 02:09:03;;;;;;;4.77;4.30;;;6.10;1.00;;;;;;5009470;28;20582;-76
2022/12/20 02:11:54;;;;;;;4.63;4.07;;;6.10;1.00;;;;;;5009056;28;20445;-77
2022/12/20 02:14:36;;;;;;;7.57;5.07;;;6.10;1.00;;;;;;5011275;28;20467;-77
2022/12/20 02:17:11;;;;;;;4.90;4.40;;;6.10;1.00;;;;;;5016700;28;20506;-78
2022/12/20 02:20:12;;;;;;;4.97;3.67;;;6.10;1.00;;;;;;5019689;28;20444;-76
2022/12/20 02:22:57;;;;;;;4.53;3.60;;;6.10;1.00;;;;;;4984016;28;20469;-76
2022/12/20 02:25:51;;;;;;;4.70;4.20;;;6.10;1.00;;;;;;5015035;28;20445;-76
2022/12/20 02:28:40;;;;;;;5.20;4.67;;;6.00;1.00;;;;;;5012120;28;20481;-75
2022/12/20 02:31:13;;;;;;;4.50;3.77;;;6.10;1.00;;;;;;5012437;28;20484;-76
2022/12/20 02:33:46;;;;;;;6.33;4.20;;;6.10;1.00;;;;;;5010653;28;20800;-78
2022/12/20 02:36:15;;;;;;;5.53;4.43;;;6.10;1.00;;;;;;5008000;28;20505;-76
2022/12/20 02:38:43;;;;;;;4.50;4.10;;;6.10;1.00;;;;;;5008216;28;20468;-76
2022/12/20 02:41:16;;;;;;;6.80;4.10;;;6.10;1.00;;;;;;5013033;28;20468;-76
2022/12/20 02:46:36;;;;;;;5.30;3.97;;;6.20;99.90;;;;;;5009228;28;20545;-77
2022/12/20 02:49:10;;;;;;;6.90;3.90;;;6.20;99.90;;;;;;5012729;28;20468;-75
2022/12/20 02:51:39;;;;;;;4.70;4.07;;;6.20;99.90;;;;;;5012897;28;20460;-75
2022/12/20 02:54:07;;;;;;;6.00;5.00;;;6.20;99.90;;;;;;5011333;28;20883;-75
2022/12/20 02:56:41;;;;;;;5.00;4.50;;;6.20;1.00;;;;;;5012470;28;20472;-76
2022/12/20 02:59:15;;;;;;;4.93;3.77;;;6.20;99.90;;;;;;5014450;28;20464;-75
2022/12/20 03:01:48;;;;;;;5.77;4.20;;;6.20;68.70;;;;;;5016454;28;20461;-76
2022/12/20 03:04:18;;;;;;;4.83;4.33;;;6.20;1.00;;;;;;5011481;28;20514;-76
2022/12/20 03:06:57;;;;;;;4.10;3.70;;;6.20;1.00;;;;;;5014337;28;20532;-76
2022/12/20 03:09:25;;;;;;;4.57;4.10;;;6.30;99.90;;;;;;5012341;28;20556;-76
2022/12/20 03:11:54;;;;;;;5.57;4.57;;;6.20;1.00;;;;;;5010319;28;20448;-77
2022/12/20 03:14:23;;;;;;;9.10;5.70;;;6.20;1.00;;;;;;5013847;28;20460;-76
2022/12/20 03:16:53;;;;;;;7.53;5.13;;;6.20;1.00;;;;;;5006574;28;20478;-77
2022/12/20 03:19:21;;;;;;;14.43;8.50;;;6.20;1.00;;;;;;5014037;28;20963;-76
2022/12/20 03:21:50;;;;;;;4.47;4.07;;;6.20;1.00;;;;;;5012001;28;20557;-76
2022/12/20 03:24:18;;;;;;;4.90;4.13;;;6.20;1.00;;;;;;5016208;28;20472;-76
2022/12/20 03:26:47;;;;;;;4.60;3.63;;;6.30;99.90;;;;;;5012436;28;21205;-76
2022/12/20 03:29:15;;;;;;;4.30;3.83;;;6.30;99.90;;;;;;5012109;28;20988;-77
2022/12/20 03:31:43;;;;;;;5.87;3.30;;;6.30;99.90;;;;;;5009754;28;20535;-78
2022/12/20 03:34:12;;;;;;;5.43;4.50;;;6.30;99.90;;;;;;5011675;28;20586;-77
2022/12/20 03:36:40;;;;;;;5.80;3.40;;;6.30;99.90;;;;;;5012228;28;20479;-76
2022/12/20 03:39:09;;;;;;;4.70;3.53;;;6.30;99.90;;;;;;5010788;28;20469;-78
2022/12/20 03:41:37;;;;;;;5.00;3.30;;;6.30;99.90;;;;;;5013495;28;20461;-76
2022/12/20 03:44:06;;;;;;;3.40;3.10;;;6.20;1.00;;;;;;5006942;28;20460;-76
2022/12/20 03:46:34;;;;;;;6.43;5.40;;;6.20;1.00;;;;;;5010102;28;20493;-75
2022/12/20 03:49:02;;;;;;;4.83;4.20;;;6.20;1.00;;;;;;5006535;28;20965;-76
2022/12/20 03:51:32;;;;;;;5.37;4.17;;;6.20;22.00;;;;;;5008677;28;20563;-77
2022/12/20 03:54:00;;;;;;;3.15;2.80;;;6.20;1.00;;;;;;5012989;28;20921;-76
2022/12/20 03:56:28;;;;;;;3.83;3.53;;;6.20;1.00;;;;;;5014292;28;20225;-76
2022/12/20 03:58:56;;;;;;;6.70;4.10;;;6.30;1.00;;;;;;5013040;28;20460;-76
2022/12/20 04:01:27;;;;;;;4.17;3.70;;;6.20;99.90;;;;;;5011161;28;20617;-75
2022/12/20 04:03:56;;;;;;;6.73;5.67;;;6.10;1.00;;;;;;5008428;28;20493;-77
2022/12/20 04:06:25;;;;;;;5.17;4.03;;;6.20;99.90;;;;;;5013835;28;20489;-75
2022/12/20 04:08:55;;;;;;;3.27;2.97;;;6.20;82.60;;;;;;5012057;28;20459;-75
2022/12/20 04:11:23;;;;;;;2.73;2.53;;;6.20;1.00;;;;;;5009718;28;20539;-76
2022/12/20 04:13:53;;;;;;;3.27;2.93;;;6.30;1.00;;;;;;5013246;28;20484;-76
2022/12/20 04:16:24;;;;;;;7.23;4.90;;;6.30;99.90;;;;;;5012186;28;20569;-76
2022/12/20 04:18:52;;;;;;;4.20;3.07;;;6.30;77.70;;;;;;5013556;28;20957;-78
2022/12/20 04:21:23;;;;;;;4.97;4.47;;;6.20;89.60;;;;;;5009250;28;20456;-77
2022/12/20 04:23:52;;;;;;;3.97;3.63;;;6.10;99.90;;;;;;5009624;28;20444;-76
2022/12/20 04:26:22;;;;;;;3.43;2.90;;;6.10;99.90;;;;;;5015132;28;20566;-77
2022/12/20 04:28:51;;;;;;;3.83;3.53;;;6.10;1.00;;;;;;5009993;28;20469;-77
2022/12/20 04:31:19;;;;;;;3.67;3.30;;;6.20;99.90;;;;;;5009089;28;20488;-77
2022/12/20 04:33:51;;;;;;;3.43;3.10;;;6.30;65.20;;;;;;5012548;28;20651;-78
2022/12/20 04:36:20;;;;;;;4.07;3.40;;;6.30;36.20;;;;;;5010819;28;21359;-76
2022/12/20 04:38:48;;;;;;;4.60;4.10;;;6.20;99.90;;;;;;5010028;28;20456;-75
2022/12/20 04:41:21;;;;;;;5.07;3.80;;;6.20;99.90;;;;;;5007335;28;20463;-76
2022/12/20 04:43:53;;;;;;;4.73;3.53;;;6.20;99.90;;;;;;5013856;28;20462;-75
2022/12/20 04:46:22;;;;;;;4.63;4.17;;;6.20;99.90;;;;;;5013472;28;20468;-76
2022/12/20 04:48:50;;;;;;;4.60;3.63;;;6.20;99.90;;;;;;5014432;28;20980;-76
2022/12/20 04:51:25;;;;;;;6.50;3.30;;;6.30;96.00;;;;;;5008019;28;20752;-74
2022/12/20 04:53:52;;;;;;;3.97;3.60;;;6.30;1.00;;;;;;5009325;28;20456;-76
2022/12/20 04:56:22;;;;;;;3.93;3.63;;;6.30;1.00;;;;;;5025550;28;20894;-76
2022/12/20 04:58:53;;;;;;;3.77;3.23;;;6.30;1.00;;;;;;5006567;28;20499;-76
2022/12/20 05:01:22;;;;;;;5.00;3.67;;;6.30;1.00;;;;;;5011384;28;20941;-76
2022/12/20 05:03:50;;;;;;;3.97;3.67;;;6.40;99.90;;;;;;5006876;28;20481;-77
2022/12/20 05:06:19;;;;;;;3.50;2.90;;;6.40;99.90;;;;;;5011467;28;20501;-76
2022/12/20 05:08:47;;;;;;;4.30;4.00;;;6.40;99.90;;;;;;5007201;28;20681;-76
2022/12/20 05:11:16;;;;;;;5.00;4.13;;;6.40;39.30;;;;;;5004545;28;20492;-74
2022/12/20 05:13:44;;;;;;;4.13;3.73;;;6.40;99.90;;;;;;5009831;28;20461;-75
2022/12/20 05:16:13;;;;;;;4.33;3.93;;;6.40;1.00;;;;;;5014175;28;20472;-74
2022/12/20 05:18:42;;;;;;;4.83;3.83;;;6.30;99.90;;;;;;5009171;28;20457;-75
2022/12/20 05:26:47;;;;;;;7.55;4.75;;;6.30;1.00;;;;;;5002595;28;20486;-77
2022/12/20 05:29:16;;;;;;;4.53;3.00;;;6.30;31.40;;;;;;5008724;28;20277;-77
2022/12/20 05:31:46;;;;;;;7.27;3.90;;;6.30;1.00;;;;;;5005758;28;20472;-75
2022/12/20 05:34:14;;;;;;;3.60;3.30;;;6.40;1.00;;;;;;5005683;28;20454;-77
2022/12/20 05:36:43;;;;;;;3.60;3.10;;;6.40;1.00;;;;;;5007961;28;20477;-75
2022/12/20 05:39:11;;;;;;;4.25;3.90;;;6.40;99.90;;;;;;5010445;28;20268;-76
2022/12/20 05:41:40;;;;;;;3.47;3.17;;;6.50;99.90;;;;;;5003640;28;20190;-78
2022/12/20 05:44:08;;;;;;;3.20;2.90;;;6.50;43.30;;;;;;5003518;28;20858;-80
2022/12/20 05:46:37;;;;;;;4.83;4.23;;;6.50;15.80;;;;;;5009188;28;20488;-78
2022/12/20 05:49:06;;;;;;;4.83;3.97;;;6.50;57.70;;;;;;5013482;28;20456;-77
2022/12/20 05:51:35;;;;;;;4.40;4.00;;;6.50;99.90;;;;;;5010945;28;20480;-79
2022/12/20 05:54:03;;;;;;;5.93;4.10;;;6.40;99.90;;;;;;5017009;28;20449;-78
2022/12/20 05:56:32;;;;;;;4.57;4.17;;;6.40;95.20;;;;;;5015646;28;20553;-77
2022/12/20 05:59:00;;;;;;;4.43;4.00;;;6.40;1.00;;;;;;5020407;28;20486;-78
2022/12/20 06:01:29;;;;;;;5.27;4.00;;;6.40;1.00;;;;;;5018703;28;20957;-78
2022/12/20 06:03:57;;;;;;;4.20;3.80;;;6.40;1.00;;;;;;5014575;28;22786;-78
2022/12/20 06:06:27;;;;;;;5.17;3.67;;;6.40;99.90;;;;;;5011162;28;21079;-79
2022/12/20 06:08:56;;;;;;;4.77;3.83;;;6.50;99.90;;;;;;5010753;28;21153;-78
2022/12/20 06:11:24;;;;;;;4.30;3.80;;;6.40;1.00;;;;;;5030803;28;20469;-80
2022/12/20 06:13:58;;;;;;;3.83;3.53;;;6.40;1.00;;;;;;5018578;28;20453;-79
2022/12/20 06:16:26;;;;;;;4.88;4.18;;;6.50;1.00;;;;;;5016840;28;20441;-78
2022/12/20 06:18:54;;;;;;;3.70;3.33;;;6.50;1.00;;;;;;5002549;28;20205;-78
2022/12/20 06:21:22;;;;;;;4.30;3.00;;;6.50;99.90;;;;;;5006913;28;20449;-79
2022/12/20 06:23:52;;;;;;;3.63;3.30;;;6.50;99.90;;;;;;5015356;28;20507;-79
2022/12/20 06:26:22;;;;;;;3.80;3.50;;;6.40;1.00;;;;;;5013979;28;20484;-79
2022/12/20 06:28:53;;;;;;;4.10;3.50;;;6.30;99.90;;;;;;5009594;28;20497;-80
2022/12/20 06:31:21;;;;;;;8.43;6.80;;;6.30;1.00;;;;;;5010932;28;20772;-77
2022/12/20 06:33:50;;;;;;;3.53;3.30;;;6.20;1.00;;;;;;5007355;28;20202;-78
2022/12/20 06:36:18;;;;;;;6.27;3.80;;;6.40;1.00;;;;;;5011779;28;20607;-77
2022/12/20 06:38:46;;;;;;;5.67;4.07;;;6.50;99.90;;;;;;5004840;28;20860;-77
2022/12/20 06:41:15;;;;;;;4.80;3.67;;;6.40;90.00;;;;;;5011867;28;20957;-77
2022/12/20 06:43:44;;;;;;;4.00;3.20;;;6.40;99.90;;;;;;5008380;28;20456;-78
2022/12/20 06:46:12;;;;;;;5.80;4.00;;;6.30;99.90;;;;;;5013892;28;20820;-78
2022/12/20 06:48:40;;;;;;;3.80;3.43;;;6.20;1.00;;;;;;5012903;28;20827;-79
2022/12/20 06:51:09;;;;;;;3.97;3.67;;;6.30;1.00;;;;;;5017871;28;20563;-78
2022/12/20 06:53:38;;;;;;;4.70;3.60;;;6.30;1.00;;;;;;5014232;28;20485;-78
2022/12/20 06:56:07;;;;;;;4.67;4.27;;;6.40;1.00;;;;;;5012533;28;20512;-77
2022/12/20 06:58:37;;;;;;;4.73;4.30;;;6.40;99.90;;;;;;5018601;28;20471;-78
2022/12/20 07:01:05;;;;;;;3.00;2.80;;;6.50;99.90;;;;;;5014290;28;21023;-76
2022/12/20 07:03:33;;;;;;;3.07;2.87;;;6.50;95.10;;;;;;5023505;28;20452;-78
2022/12/20 07:06:02;;;;;;;2.40;2.20;;;6.60;99.90;;;;;;5018420;28;20452;-79
2022/12/20 07:08:30;;;;;;;2.40;2.20;;;6.70;42.20;;;;;;5023099;28;20464;-79
2022/12/20 07:11:04;;;;;;;2.70;2.50;;;6.70;1.00;;;;;;5018565;28;20541;-78
2022/12/20 07:13:33;;;;;;;4.10;2.57;;;6.80;1.00;;;;;;5025836;28;20456;-77
2022/12/20 07:16:04;;;;;;;2.60;2.40;;;6.80;99.90;;;;;;5018400;28;20459;-77
2022/12/20 07:18:34;;;;;;;3.87;2.47;;;6.80;99.90;;;;;;5018565;28;20457;-77
2022/12/20 07:21:05;;;;;;;2.73;2.40;;;6.90;1.00;;;;;;5021505;28;20459;-77
2022/12/20 07:23:33;;;;;;;2.43;2.23;;;6.80;1.00;;;;;;5020488;28;20456;-78
2022/12/20 07:26:03;;;;;;;2.50;2.30;;;6.90;1.00;;;;;;5015652;28;20473;-79
2022/12/20 07:28:31;;;;;;;2.70;2.37;;;7.00;99.90;;;;;;5021011;28;20970;-78
2022/12/20 07:31:02;;;;;;;2.97;2.70;;;7.00;1.00;;;;;;5015973;28;20577;-78
2022/12/20 07:33:31;;;;;;;3.23;2.90;;;7.00;1.00;;;;;;5018053;28;20602;-78
2022/12/20 07:36:01;;;;;;;3.47;3.17;;;7.10;1.00;;;;;;5010591;28;20514;-77
2022/12/20 07:38:30;;;;;;;3.37;2.93;;;7.00;1.00;;;;;;5013222;28;20293;-79
2022/12/20 07:40:58;;;;;;;4.20;3.23;;;7.00;1.00;;;;;;5009308;28;20481;-79
2022/12/20 07:43:27;;;;;;;3.10;2.80;;;7.10;99.90;;;;;;5017254;28;20449;-76
2022/12/20 07:45:56;;;;;;;3.70;2.93;;;7.10;99.90;;;;;;5014142;28;20481;-80
2022/12/20 07:48:26;;;;;;;2.87;2.57;;;7.00;1.00;;;;;;5017320;28;20460;-79
2022/12/20 07:50:59;;;;;;;3.43;3.13;;;7.00;1.00;;;;;;5021919;28;21191;-80
2022/12/20 07:53:28;;;;;;;3.40;3.10;;;7.10;1.00;;;;;;5015595;28;20481;-78
2022/12/20 07:55:58;;;;;;;2.93;2.73;;;7.00;1.00;;;;;;5016621;28;20665;-78
2022/12/20 07:58:27;;;;;;;3.47;3.17;;;7.00;33.40;;;;;;5019603;28;20465;-78
2022/12/20 08:00:56;;;;;;;3.53;3.00;;;6.90;99.90;;;;;;5016015;28;20465;-77
2022/12/20 08:03:30;;;;;;;4.07;3.67;;;7.00;99.90;;;;;;5016271;28;20889;-78
2022/12/20 08:06:03;;;;;;;3.50;3.07;;;7.00;99.90;;;;;;5019084;28;20475;-78
2022/12/20 08:08:33;;;;;;;3.13;2.90;;;7.00;99.90;;;;;;5011684;28;20462;-79
2022/12/20 08:11:03;;;;;;;4.37;3.27;;;6.90;1.00;;;;;;5016031;28;20447;-78
2022/12/20 08:13:33;;;;;;;3.70;2.80;;;7.00;1.00;;;;;;5017661;28;20471;-79
2022/12/20 08:16:01;;;;;;;3.53;3.23;;;7.00;1.00;;;;;;5017965;28;21001;-79
2022/12/20 08:18:31;;;;;;;5.03;3.00;;;7.00;1.00;;;;;;5019168;28;20468;-78
2022/12/20 08:20:59;;;;;;;3.80;3.00;;;6.90;1.00;;;;;;5013728;28;20458;-78
2022/12/20 08:23:29;;;;;;;7.50;3.57;;;6.90;1.00;;;;;;5013019;28;20502;-79
2022/12/20 08:26:00;;;;;;;3.40;3.10;;;7.00;99.90;;;;;;5015182;28;20456;-79
2022/12/20 08:28:28;;;;;;;3.20;2.90;;;6.90;1.00;;;;;;5015521;28;20456;-78
2022/12/20 08:31:02;;;;;;;7.03;3.33;;;7.00;1.00;;;;;;5010868;28;20465;-78
2022/12/20 08:33:32;;;;;;;4.03;3.07;;;7.00;99.90;;;;;;5014904;28;20476;-77
2022/12/20 08:36:03;;;;;;;2.70;2.33;;;7.00;99.90;;;;;;5013774;28;20560;-77
2022/12/20 08:38:32;;;;;;;3.70;3.40;;;7.10;1.00;;;;;;5014822;28;20457;-78
2022/12/20 08:41:03;;;;;;;3.33;2.87;;;7.10;99.90;;;;;;5016110;28;20836;-81
2022/12/20 08:43:33;;;;;;;3.60;3.40;;;7.10;1.00;;;;;;5015747;28;20450;-77
2022/12/20 08:46:02;;;;;;;3.80;3.50;;;7.20;1.00;;;;;;5017267;28;20461;-77
2022/12/20 08:48:32;;;;;;;5.47;4.97;;;7.20;99.90;;;;;;5015916;28;21011;-78
2022/12/20 08:51:03;;;;;;;3.33;2.93;;;7.20;99.90;;;;;;5013149;28;20457;-77
2022/12/20 08:53:31;;;;;;;3.20;2.90;;;7.30;99.90;;;;;;5013342;28;20558;-77
2022/12/20 08:56:05;;;;;;;4.97;3.57;;;7.30;1.00;;;;;;5013102;28;20457;-78
2022/12/20 08:58:33;;;;;;;3.43;3.13;;;7.30;1.00;;;;;;5014592;28;20458;-75
2022/12/20 09:01:05;;;;;;;3.00;2.73;;;7.30;1.00;;;;;;5010389;28;20511;-74
2022/12/20 09:03:37;;;;;;;3.33;3.03;;;7.30;99.90;;;;;;5008029;28;20493;-76
2022/12/20 09:06:07;;;;;;;2.40;2.20;;;7.30;1.00;;;;;;5011467;28;20480;-76
2022/12/20 09:08:37;;;;;;;2.73;2.53;;;7.30;1.00;;;;;;5011126;28;20956;-75
2022/12/20 09:11:06;;;;;;;4.07;2.90;;;7.40;1.00;;;;;;5010224;28;21121;-75
2022/12/20 09:13:35;;;;;;;2.93;2.67;;;7.40;1.00;;;;;;5012079;28;20493;-75
2022/12/20 09:16:11;;;;;;;23.27;14.87;;;7.40;99.90;;;;;;5010249;28;20463;-73
2022/12/20 09:18:42;;;;;;;4.00;3.07;;;7.40;99.90;;;;;;5011734;28;21166;-74
2022/12/20 09:21:12;;;;;;;3.23;2.77;;;7.40;1.00;;;;;;5013159;28;20453;-74
2022/12/20 09:23:41;;;;;;;6.73;4.90;;;7.30;99.90;;;;;;5006836;28;21207;-76
2022/12/20 09:26:13;;;;;;;10.90;5.33;;;7.30;99.90;;;;;;5012803;28;20454;-74
2022/12/20 09:28:42;;;;;;;20.60;13.30;;;7.30;1.00;;;;;;5009944;28;20859;-75
2022/12/20 09:31:14;;;;;;;3.70;3.17;;;7.30;99.90;;;;;;5008374;28;21065;-74
2022/12/20 09:33:46;;;;;;;4.07;3.33;;;7.30;99.90;;;;;;5011408;28;20470;-75
2022/12/20 09:36:17;;;;;;;8.20;7.00;;;7.40;1.00;;;;;;5011905;28;20478;-75
2022/12/20 09:38:47;;;;;;;2.50;2.30;;;7.40;30.20;;;;;;5014040;28;20453;-73
2022/12/20 09:41:25;;;;;;;2.90;2.70;;;7.50;1.00;;;;;;5010286;28;20485;-78
2022/12/20 09:43:54;;;;;;;2.93;2.73;;;7.50;15.00;;;;;;5010721;28;20453;-77
2022/12/20 09:46:24;;;;;;;4.57;3.20;;;7.50;1.00;;;;;;5009923;28;20889;-77
2022/12/20 09:48:54;;;;;;;6.70;4.30;;;7.50;1.00;;;;;;5013503;28;20447;-78
2022/12/20 09:51:36;;;;;;;4.30;3.97;;;7.60;99.90;;;;;;5017357;28;20515;-78
2022/12/20 09:54:18;;;;;;;5.80;4.67;;;7.70;99.90;;;;;;5014208;28;20478;-78
2022/12/20 09:56:58;;;;;;;3.97;3.50;;;8.00;99.90;;;;;;5011339;28;20501;-77
2022/12/20 09:59:28;;;;;;;5.73;5.10;;;7.90;99.90;;;;;;5011216;28;20470;-78
2022/12/20 10:02:09;;;;;;;3.37;3.07;;;7.90;99.90;;;;;;5007562;28;20456;-79
2022/12/20 10:05:00;;;;;;;3.83;3.53;;;7.90;99.90;;;;;;5010282;28;20452;-78
2022/12/20 10:07:39;;;;;;;3.97;3.57;;;7.90;99.90;;;;;;5008768;28;20480;-78
2022/12/20 10:10:33;;;;;;;4.10;3.70;;;7.80;1.00;;;;;;5012786;28;20457;-79
2022/12/20 10:13:16;;;;;;;3.33;3.03;;;7.90;99.90;;;;;;5010387;28;20469;-79
2022/12/20 10:15:52;;;;;;;4.00;3.13;;;7.80;1.00;;;;;;5009556;28;20552;-78
2022/12/20 10:18:39;;;;;;;3.70;3.30;;;7.80;1.00;;;;;;5012262;28;20469;-78
2022/12/20 10:21:17;;;;;;;3.97;3.53;;;7.80;1.00;;;;;;5012612;28;20545;-77
2022/12/20 10:23:57;;;;;;;3.53;2.83;;;7.80;14.80;;;;;;5010373;28;20445;-78
2022/12/20 10:26:26;;;;;;;4.87;2.77;;;7.80;1.00;;;;;;5011882;28;21039;-78
2022/12/20 10:28:55;;;;;;;4.60;2.87;;;7.90;1.00;;;;;;5013220;28;20532;-79
2022/12/20 10:31:24;;;;;;;3.40;3.13;;;7.90;1.00;;;;;;5010540;28;20460;-79
2022/12/20 10:33:53;;;;;;;2.73;2.53;;;7.90;85.80;;;;;;5009404;28;20492;-78
2022/12/20 10:36:26;;;;;;;2.80;2.60;;;7.80;1.00;;;;;;5011274;28;20499;-78
2022/12/20 10:38:56;;;;;;;2.47;1.90;;;7.80;1.00;;;;;;5017604;28;20540;-76
2022/12/20 10:41:26;;;;;;;2.90;2.30;;;7.90;1.00;;;;;;5016943;28;20446;-78
2022/12/20 10:43:59;;;;;;;2.27;2.07;;;7.90;1.00;;;;;;5014431;28;20454;-76
2022/12/20 10:46:40;;;;;;;3.10;2.60;;;7.90;1.00;;;;;;5020331;28;20469;-79
2022/12/20 10:49:26;;;;;;;5.20;2.20;;;7.90;1.00;;;;;;5019479;28;20472;-78
2022/12/20 10:51:57;;;;;;;2.63;2.10;;;7.90;1.00;;;;;;5013792;28;20472;-80
2022/12/20 10:54:33;;;;;;;1.83;1.73;;;7.90;99.90;;;;;;5018135;28;20572;-79
2022/12/20 10:57:03;;;;;;;4.40;2.57;;;7.90;99.90;;;;;;5018276;28;20915;-78
2022/12/20 10:59:36;;;;;;;4.07;2.43;;;7.90;1.00;;;;;;5015796;28;20480;-78
2022/12/20 11:02:26;;;;;;;2.93;2.60;;;7.90;1.00;;;;;;5017125;28;20450;-79
2022/12/20 11:05:22;;;;;;;2.73;2.53;;;7.90;99.90;;;;;;5019252;28;20525;-78
2022/12/20 11:07:56;;;;;;;2.30;2.17;;;7.90;99.90;;;;;;5022052;28;20482;-78
2022/12/20 11:10:45;;;;;;;4.23;2.67;;;8.00;99.90;;;;;;5015492;28;20452;-78
2022/12/20 11:13:22;;;;;;;3.23;2.80;;;8.00;99.90;;;;;;5032851;28;20862;-77
2022/12/20 11:15:55;;;;;;;2.60;2.40;;;8.00;99.90;;;;;;5017958;28;20510;-79
2022/12/20 11:18:34;;;;;;;2.27;2.07;;;8.00;99.90;;;;;;5014703;28;20525;-79
2022/12/20 11:21:19;;;;;;;6.03;2.70;;;8.00;99.90;;;;;;5009972;28;21160;-77
2022/12/20 11:24:06;;;;;;;2.50;2.30;;;8.10;99.90;;;;;;5015711;28;20461;-79
2022/12/20 11:26:50;;;;;;;2.20;2.03;;;8.00;99.90;;;;;;5012266;28;20576;-78
2022/12/20 11:29:34;;;;;;;3.33;2.90;;;8.10;99.90;;;;;;5012717;28;20448;-78
2022/12/20 11:32:08;;;;;;;2.77;2.53;;;8.10;99.90;;;;;;5011745;28;20557;-77
2022/12/20 11:34:45;;;;;;;4.37;2.60;;;8.10;99.90;;;;;;5010788;28;20479;-77
2022/12/20 11:37:20;;;;;;;3.43;2.33;;;8.10;99.90;;;;;;5011446;28;20508;-82
2022/12/20 11:40:12;;;;;;;3.73;3.43;;;8.10;99.90;;;;;;5015701;28;20471;-78
2022/12/20 11:42:56;;;;;;;2.43;2.00;;;8.10;99.90;;;;;;5020007;28;20535;-78
2022/12/20 11:45:30;;;;;;;2.50;2.40;;;8.10;99.90;;;;;;5010581;28;20457;-79
2022/12/20 11:48:14;;;;;;;3.13;2.83;;;8.20;99.90;;;;;;5011050;28;20492;-77
2022/12/20 11:50:55;;;;;;;3.73;2.53;;;8.10;99.90;;;;;;5011451;28;20572;-79
2022/12/20 11:53:30;;;;;;;2.70;2.50;;;8.10;99.90;;;;;;5012045;28;21071;-76
2022/12/20 11:56:05;;;;;;;2.43;2.23;;;8.20;99.90;;;;;;5019146;28;20452;-78
2022/12/20 11:58:46;;;;;;;2.50;2.30;;;8.20;41.20;;;;;;5017139;28;20465;-77
2022/12/20 12:01:17;;;;;;;4.20;2.50;;;8.10;28.30;;;;;;5018698;28;20449;-78
2022/12/20 12:03:57;;;;;;;2.20;1.93;;;8.10;93.40;;;;;;5015129;28;20531;-79
2022/12/20 12:06:29;;;;;;;2.33;2.23;;;8.10;54.60;;;;;;5016121;28;20480;-78
2022/12/20 12:09:09;;;;;;;2.00;1.80;;;8.20;1.00;;;;;;5017745;28;20521;-77
2022/12/20 12:11:43;;;;;;;2.27;2.17;;;8.20;99.90;;;;;;5011851;28;20465;-78
2022/12/20 12:14:42;;;;;;;2.30;1.97;;;8.20;26.50;;;;;;5016162;28;20475;-78
2022/12/20 12:17:18;;;;;;;4.87;2.57;;;8.20;1.00;;;;;;5016850;28;20481;-78
2022/12/20 12:19:51;;;;;;;1.80;1.70;;;8.20;1.00;;;;;;5013892;28;20464;-78
2022/12/20 12:22:26;;;;;;;2.67;2.20;;;8.30;1.00;;;;;;5013784;28;20957;-78
2022/12/20 12:24:58;;;;;;;2.97;2.27;;;8.30;1.00;;;;;;5015912;28;20529;-78
2022/12/20 12:27:28;;;;;;;2.30;1.80;;;8.30;1.00;;;;;;5003301;28;20473;-77
2022/12/20 12:29:58;;;;;;;2.43;2.00;;;8.30;99.90;;;;;;5006864;28;20463;-79
2022/12/20 12:32:32;;;;;;;2.33;2.07;;;8.30;1.00;;;;;;5009802;28;21209;-78
2022/12/20 12:35:17;;;;;;;3.70;2.10;;;8.30;1.00;;;;;;5005392;28;20490;-77
2022/12/20 12:37:57;;;;;;;2.13;2.03;;;8.30;1.00;;;;;;5012764;28;20477;-78
2022/12/20 12:40:50;;;;;;;2.77;1.97;;;8.30;1.00;;;;;;5004250;28;20463;-78
2022/12/20 12:43:46;;;;;;;2.03;1.83;;;8.30;1.00;;;;;;5014609;28;20819;-78
2022/12/20 12:46:19;;;;;;;3.27;3.07;;;8.30;1.00;;;;;;4995929;28;20445;-76
2022/12/20 12:48:55;;;;;;;1.90;1.80;;;8.40;99.90;;;;;;5008233;28;21079;-77
2022/12/20 12:51:29;;;;;;;3.20;1.90;;;8.40;99.90;;;;;;5012176;28;20453;-80
2022/12/20 12:54:14;;;;;;;3.57;2.30;;;8.40;99.90;;;;;;5007539;28;20462;-78
2022/12/20 12:56:45;;;;;;;3.37;2.20;;;8.40;99.90;;;;;;4999901;28;20482;-78
2022/12/20 12:59:38;;;;;;;3.80;2.10;;;8.40;1.00;;;;;;5002955;28;20558;-78
2022/12/20 13:02:48;;;;;;;2.90;2.53;;;8.40;99.90;;;;;;5004493;28;20466;-77
2022/12/20 13:05:36;;;;;;;2.90;2.30;;;8.40;99.90;;;;;;5011940;28;21093;-77
2022/12/20 13:08:15;;;;;;;2.50;1.67;;;8.40;99.90;;;;;;5015969;28;20561;-77
2022/12/20 13:11:01;;;;;;;2.87;1.97;;;8.40;99.90;;;;;;5014807;28;20449;-78
2022/12/20 13:13:32;;;;;;;2.70;2.07;;;8.40;99.90;;;;;;5013226;28;20460;-77
2022/12/20 13:16:26;;;;;;;2.20;2.00;;;8.40;99.90;;;;;;5007536;28;20516;-78
2022/12/20 13:19:17;;;;;;;1.77;1.67;;;8.40;99.90;;;;;;5014140;28;20455;-76
2022/12/20 13:21:47;;;;;;;3.53;3.23;;;8.50;99.90;;;;;;5017771;28;20514;-78
2022/12/20 13:24:49;;;;;;;4.13;1.90;;;8.40;99.90;;;;;;5009261;28;20561;-76
2022/12/20 13:27:39;;;;;;;2.60;1.87;;;8.40;99.90;;;;;;5021719;28;20490;-76
2022/12/20 13:30:26;;;;;;;4.00;2.40;;;8.40;99.90;;;;;;5003915;28;20846;-77
2022/12/20 13:33:22;;;;;;;2.40;2.00;;;8.40;99.90;;;;;;5011970;28;20495;-77
2022/12/20 13:36:19;;;;;;;2.20;2.00;;;8.40;99.90;;;;;;5006452;28;20555;-78
2022/12/20 13:38:54;;;;;;;1.80;1.70;;;8.40;99.90;;;;;;5000605;28;20471;-78